Flight Track Log - Related Links

Times and Time Zones

All times are in EST time to prevent confusion due to time zone crossing. See the N115WF flight status page for this flight to view local times or setup timezone preferences in your user account.

Time Position Orientation Groundspeed Altitude Reporting Facility
EST Latitude Longitude Course Direction KTS km/h feet Rate Location/Type
Sun 12:04:50 32.1014 -110.9253 133° Southeast 192 356 3.400  Level Albuquerque Center
Sun 12:05:20 32.0817 -110.9006 133° Southeast 219 406 4.600 3.474 Climbing Albuquerque Center
Sun 12:06:06 32.0525 -110.8503 124° Southeast 250 463 7.800 4.500 Climbing Albuquerque Center
Sun 12:06:20 32.0411 -110.8258 119° Southeast 262 486 9.100 3.148 Climbing Albuquerque Center
Sun 12:07:07 32.0547 -110.7711 74° East 282 523 11.000 2.752 Climbing Albuquerque Center
Sun 12:08:09 32.1231 -110.7725 359° North 275 509 14.100 2.613 Climbing Albuquerque Center
Sun 12:09:11 32.1922 -110.8175 331° Northwest 279 517 16.400 2.081 Climbing Albuquerque Center
Sun 12:10:13 32.2817 -110.8219 358° North 318 589 18.400 2.226 Climbing Albuquerque Center
Sun 12:11:15 32.3961 -110.8217 360° North 339 628 21.000 2.293 Climbing Albuquerque Center
Sun 12:12:16 32.4947 -110.8222 360° North 350 649 23.100 1.854 Climbing Albuquerque Center
Sun 12:13:18 32.5964 -110.8211 North 361 668 24.800 1.597 Climbing Albuquerque Center
Sun 12:14:20 32.7014 -110.8194 North 370 686 26.400 1.645 Climbing Albuquerque Center
Sun 12:15:22 32.8078 -110.8186 360° North 379 702 28.200 1.548 Climbing Albuquerque Center
Sun 12:16:24 32.9167 -110.8161 North 387 716 29.600 1.268 Climbing Albuquerque Center
Sun 12:17:25 33.0272 -110.8153 360° North 394 729 30.800 1.317 Climbing Albuquerque Center
Sun 12:18:27 33.1628 -110.8144 360° North 404 748 32.300 1.355 Climbing Albuquerque Center
Sun 12:19:29 33.2758 -110.8122 North 407 753 33.600 968 Climbing Albuquerque Center
Sun 12:20:31 33.3869 -110.8111 360° North 403 747 34.300 629 Climbing Albuquerque Center
Sun 12:21:33 33.4989 -110.8106 360° North 403 747 34.900 634 Climbing Albuquerque Center
Sun 12:22:34 33.6111 -110.8103 360° North 404 748 35.600 537 Climbing Albuquerque Center
Sun 12:23:36 33.7239 -110.8092 360° North 405 750 36.000 194 Climbing Albuquerque Center
Sun 12:24:38 33.8619 -110.8081 360° North 411 761 36.000  Level Albuquerque Center
Sun 12:25:40 33.9783 -110.8069 360° North 416 771 36.000  Level Albuquerque Center
Sun 12:26:42 34.0928 -110.8058 360° North 416 771 36.000 -98 Level Albuquerque Center
Sun 12:27:43 34.2006 -110.8044 North 402 745 35.800 -390 Descending Albuquerque Center
Sun 12:28:45 34.3061 -110.8033 360° North 388 719 35.200 -871 Descending Albuquerque Center
Sun 12:29:47 34.4314 -110.8028 360° North 381 705 34.000 -581 Descending Albuquerque Center
Sun 12:30:49 34.5339 -110.8022 360° North 374 692 34.000  Level Albuquerque Center
Sun 12:31:51 34.6328 -110.8008 North 362 671 34.000  Level Albuquerque Center
Sun 12:32:53 34.7314 -110.7997 North 357 661 34.000  Level Albuquerque Center
Sun 12:33:55 34.8356 -110.7978 North 367 679 34.000  Level Albuquerque Center
Sun 12:34:56 34.9411 -110.7969 360° North 376 697 34.000 -49 Level Albuquerque Center
Sun 12:35:58 35.0667 -110.7831 North 388 719 33.900 -290 Descending Albuquerque Center
Sun 12:37:00 35.1639 -110.7294 24° Northeast 402 745 33.400 -435 Descending Albuquerque Center
Sun 12:38:02 35.2767 -110.6550 28° Northeast 411 761 33.000 -194 Descending Albuquerque Center
Sun 12:39:04 35.3722 -110.5908 29° Northeast 410 760 33.000  Level Albuquerque Center
Sun 12:40:06 35.4831 -110.5189 28° Northeast 405 750 33.000  Level Albuquerque Center
Sun 12:41:08 35.5756 -110.4564 29° Northeast 400 740 33.000  Level Albuquerque Center
Sun 12:42:10 35.6847 -110.3850 28° Northeast 397 735 33.000  Level Albuquerque Center
Sun 12:43:12 35.7758 -110.3228 29° Northeast 393 727 33.000  Level Albuquerque Center
Sun 12:44:14 35.8842 -110.2522 28° Northeast 393 727 33.000  Level Albuquerque Center
Sun 12:45:16 35.9758 -110.1911 28° Northeast 391 724 33.000  Level Albuquerque Center
Sun 12:46:18 36.0672 -110.1300 28° Northeast 390 723 33.000  Level Albuquerque Center
Sun 12:47:20 36.1742 -110.0589 28° Northeast 389 721 33.000  Level Albuquerque Center
Sun 12:48:36 36.2944 -109.9781 28° Northeast 388 719 33.000  Level Denver Center
Sun 12:49:38 36.3858 -109.9161 29° Northeast 389 721 33.000  Level Denver Center
Sun 12:50:40 36.4908 -109.8450 29° Northeast 386 715 33.000  Level Denver Center
Sun 12:51:43 36.5803 -109.7839 29° Northeast 383 710 33.000  Level Denver Center
Sun 12:52:45 36.6844 -109.7128 29° Northeast 382 708 33.000  Level Denver Center
Sun 12:53:47 36.7742 -109.6511 29° Northeast 382 708 33.000  Level Denver Center
Sun 12:54:49 36.8783 -109.5797 29° Northeast 381 705 33.000  Level Denver Center
Sun 12:55:51 36.9681 -109.5189 28° Northeast 382 708 33.000  Level Denver Center
Sun 12:56:53 37.0717 -109.4469 29° Northeast 381 705 33.000  Level Denver Center
Sun 12:57:55 37.1614 -109.3850 29° Northeast 382 708 33.000  Level Denver Center
Sun 12:58:57 37.2503 -109.3225 29° Northeast 383 710 33.000  Level Denver Center
Sun 13:00:00 37.3539 -109.2536 28° Northeast 379 702 33.000  Level Denver Center
Sun 13:01:02 37.4419 -109.1875 31° Northeast 383 710 33.000  Level Denver Center
Sun 13:02:04 37.5456 -109.1172 28° Northeast 378 700 33.000  Level Denver Center
Sun 13:03:06 37.6339 -109.0556 29° Northeast 378 700 33.000  Level Denver Center
Sun 13:04:08 37.7356 -108.9822 30° Northeast 377 698 33.000 -242 Level Denver Center
Sun 13:05:10 37.8222 -108.9214 29° Northeast 372 689 32.500 -871 Descending Denver Center
Sun 13:06:12 37.8983 -108.8164 47° Northeast 367 679 31.200 -1.210 Descending Denver Center
Sun 13:07:14 37.9589 -108.7297 48° Northeast 350 649 30.000 -1.065 Descending Denver Center
Sun 13:08:16 37.9094 -108.5917 114° Southeast 438 811 29.000 -484 Descending Denver Center
Sun 13:09:18 37.8258 -108.6261 198° South 360 666 29.000  Level Denver Center
Sun 13:10:21 37.8372 -108.7181 279° West 264 489 29.000  Level Denver Center
Sun 13:11:23 37.8256 -108.8125 261° West 277 513 29.000  Level Denver Center
Sun 13:12:25 37.8089 -108.9214 259° West 280 518 29.000  Level Denver Center
Sun 13:13:27 37.8117 -109.0050 272° West 251 465 29.000  Level Denver Center
Sun 13:14:29 37.8631 -109.0514 325° Northwest 220 407 29.000  Level Denver Center
Sun 13:15:31 37.9219 -108.9806 43° Northeast 313 579 29.000 -387 Level Denver Center
Sun 13:16:33 37.9842 -108.8972 47° Northeast 340 629 28.200 -968 Descending Denver Center
Sun 13:17:35 38.0606 -108.7928 47° Northeast 363 673 27.000 -581 Descending Denver Center
Sun 13:18:37 38.1331 -108.6844 50° Northeast 357 661 27.000  Level Denver Center
Sun 13:19:40 38.1881 -108.6067 48° Northeast 321 594 27.000  Level Denver Center
Sun 13:20:42 38.2517 -108.5208 47° Northeast 301 557 27.000  Level Denver Center
Sun 13:21:44 38.3056 -108.4456 48° Northeast 301 557 27.000 -242 Level Denver Center
Sun 13:22:46 38.3686 -108.3567 48° Northeast 302 560 26.500 -774 Descending Denver Center
Sun 13:23:48 38.4203 -108.2828 48° Northeast 294 544 25.400 -1.258 Descending Denver Center
Sun 13:24:50 38.4744 -108.2064 48° Northeast 264 489 23.900 -1.403 Descending Denver Center
Sun 13:25:52 38.5186 -108.1433 48° Northeast 252 467 22.500 -1.306 Descending Denver Center
Sun 13:26:54 38.5619 -108.0844 47° Northeast 241 446 21.200 -1.200 Descending Denver Center
Sun 13:27:57 38.6081 -108.0167 49° Northeast 229 425 20.000 -576 Descending Denver Center
Sun 13:28:59 38.6489 -107.9592 48° Northeast 228 422 20.000  Level Denver Center
Sun 13:30:01 38.6967 -107.8922 48° Northeast 229 425 20.000  Level Denver Center
Sun 13:31:03 38.7389 -107.8303 49° Northeast 238 441 20.000  Level Denver Center
Sun 13:32:05 38.7917 -107.7561 48° Northeast 249 462 20.000  Level Denver Center
Sun 13:33:07 38.8378 -107.6875 49° Northeast 261 483 20.000  Level Denver Center
Sun 13:34:09 38.8903 -107.6122 48° Northeast 256 475 20.000  Level Denver Center
Sun 13:35:11 38.9375 -107.5461 47° Northeast 260 481 20.000  Level Denver Center
Sun 13:36:13 38.9903 -107.4683 49° Northeast 260 481 20.000  Level Denver Center
Sun 13:37:15 39.0361 -107.4019 48° Northeast 258 478 20.000  Level Denver Center
Sun 13:38:18 39.0875 -107.3269 49° Northeast 254 470 20.000  Level Denver Center
Sun 13:39:20 39.1347 -107.2650 45° Northeast 253 468 20.000  Level Denver Center
Sun 13:40:22 39.1911 -107.1983 42° Northeast 248 459 20.000  Level Denver Center
Sun 13:41:24 39.2414 -107.1364 44° Northeast 260 481 20.000  Level Denver Center
Sun 13:42:26 39.2944 -107.0714 43° Northeast 262 486 20.000  Level Denver Center
Sun 13:43:28 39.2864 -106.9658 96° East 318 589 20.000 -290 Level Denver Center
Sun 13:44:30 39.2494 -106.8297 109° East 339 628 19.400 -919 Descending Denver Center
Sun 13:45:32 39.2214 -106.7167 108° East 336 623 18.100 -774 Descending Denver Center
Sun 13:46:34 39.2275 -106.6133 86° East 311 576 17.800 -144 Descending Denver Center
Sun 13:47:37 39.2894 -106.6164 358° North 238 441 17.800 96 Level Denver Center
Sun 13:48:39 39.3350 -106.6567 326° Northwest 227 420 18.000 1.016 Climbing Denver Center
Sun 13:49:41 39.3644 -106.7444 293° West 242 447 19.900 1.452 Climbing Denver Center
Sun 13:50:43 39.4311 -106.7661 346° North 230 426 21.000 532 Climbing Denver Center
Sun 13:51:45 39.4850 -106.7894 342° North 214 396 21.000  Level Denver Center
Sun 13:52:48 39.5422 -106.8097 345° North 222 410 21.000  Level Denver Center
Sun 13:53:50 39.5964 -106.8486 331° Northwest 218 404 21.000  Level Denver Center
Sun 13:54:52 39.5950 -106.9328 269° West 243 451 21.000 -339 Level Denver Center
Sun 13:55:54 39.5914 -107.0269 267° West 236 438 20.300 -1.113 Descending Denver Center
Sun 13:56:56 39.5275 -107.0672 206° Southwest 311 576 18.700 -1.113 Descending Denver Center
Sun 13:57:58 39.4322 -107.0142 157° South 331 613 18.000 -387 Descending Denver Center
Sun 13:59:00 39.3506 -106.9572 152° Southeast 337 624 17.900 -97 Descending Denver Center
Sun 14:00:02 39.3069 -106.8617 121° Southeast 322 597 17.800  Descending Denver Center
Sun 14:01:05 39.2836 -106.7542 106° East 316 586 17.900 48 Climbing Denver Center
Sun 14:02:07 39.3019 -106.6619 76° East 292 541 17.900 -726 Level Denver Center
Sun 14:03:09 39.3706 -106.6886 343° North 223 414 16.400 -878 Descending Denver Center
Sun 14:04:10 39.4317 -106.7258 335° Northwest 228 422 16.100 -145 Descending Denver Center
Sun 14:05:13 39.4872 -106.7636 332° Northwest 234 433 16.100  Level Denver Center
Sun 14:06:15 39.5250 -106.8286 307° West 229 425 16.100 97 Level Denver Center
Sun 14:07:17 39.4931 -106.9006 240° Southwest 239 443 16.300 48 Climbing Denver Center
Sun 14:08:19 39.4539 -106.9719 235° Southwest 223 414 16.200 -387 Descending Denver Center
Sun 14:09:21 39.3981 -106.9606 171° South 235 435 15.500 -774 Descending Denver Center
Sun 14:10:23 39.3442 -106.9275 155° Southeast 220 407 14.600 -1.452 Descending Denver Center
Sun 14:11:25 39.2817 -106.8961 159° South 206 381 12.500 -242 Descending Denver Center
Sun 14:12:27 39.2572 -106.9206 218° Southwest 187 346 14.100 1.632 Climbing Denver Center
Sun 14:13:30 39.2983 -106.9744 315° West 217 402 15.900 768 Climbing Denver Center
Sun 14:14:32 39.3508 -107.0231 324° Northwest 228 422 15.700 -726 Descending Denver Center
Sun 14:15:34 39.3822 -107.0950 299° West 229 425 14.400 -968 Descending Denver Center
Sun 14:16:36 39.4361 -107.1031 353° North 241 446 13.700 -339 Descending Denver Center
Sun 14:17:38 39.4572 -107.0111 73° East 265 491 13.700 -48 Level Denver Center
Sun 14:18:40 39.3967 -106.9511 143° Southeast 275 509 13.600 -242 Descending Denver Center
Sun 14:19:42 39.3458 -106.9278 160° South 205 380 13.200 -960 Descending Denver Center
Sun 14:20:45 39.2964 -106.9042 160° South 190 352 11.600 -1.920 Descending Denver Center
Sun 14:21:47 39.2414 -106.8744 157° South 190 352 9.200 -2.323 Descending Denver Center
Sun 14:23:00 39.2167 -106.8667 159° South  Level FlightAware Approximate

Login

Don't have an account? Register now (free) for customized features, flight alerts, and more!